createdAt,value
2019-01-19T00:00:52.039Z,0.00
2019-01-19T00:01:52.038Z,0.00
2019-01-19T00:02:52.065Z,0.00
2019-01-19T00:03:52.044Z,0.00
2019-01-19T00:04:52.009Z,0.00
2019-01-19T00:05:51.966Z,0.00
2019-01-19T00:06:51.952Z,0.00
2019-01-19T00:07:51.945Z,0.00
2019-01-19T00:08:51.941Z,0.00
2019-01-19T00:09:51.989Z,0.00
2019-01-19T00:10:51.935Z,0.00
2019-01-19T00:11:51.915Z,0.00
2019-01-19T00:12:51.893Z,0.00
2019-01-19T00:13:51.904Z,0.00
2019-01-19T00:14:51.871Z,0.00
2019-01-19T00:15:51.939Z,0.00
2019-01-19T00:16:51.848Z,0.00
2019-01-19T00:17:51.845Z,0.00
2019-01-19T00:18:51.855Z,0.00
2019-01-19T00:19:51.834Z,0.00
2019-01-19T00:20:51.806Z,0.00
2019-01-19T00:21:51.824Z,0.00
2019-01-19T00:22:51.784Z,0.00
2019-01-19T00:23:51.775Z,0.00
2019-01-19T00:24:51.787Z,0.00
2019-01-19T00:25:51.775Z,0.00
2019-01-19T00:26:51.740Z,0.00
2019-01-19T00:27:51.759Z,0.00
2019-01-19T00:28:51.744Z,0.00
2019-01-19T00:29:51.711Z,0.00
2019-01-19T00:30:51.700Z,0.00
2019-01-19T00:31:51.742Z,0.00
2019-01-19T00:32:51.675Z,0.00
2019-01-19T00:33:51.687Z,0.00
2019-01-19T00:34:51.654Z,0.00
2019-01-19T00:35:51.675Z,0.00
2019-01-19T00:36:51.633Z,0.00
2019-01-19T00:37:51.625Z,0.00
2019-01-19T00:38:51.626Z,0.00
2019-01-19T00:39:51.620Z,0.00
2019-01-19T00:40:51.619Z,0.00
2019-01-19T00:41:51.587Z,0.00
2019-01-19T00:42:51.606Z,0.00
2019-01-19T00:43:51.563Z,0.00
2019-01-19T00:44:51.547Z,0.00
2019-01-19T00:45:51.533Z,0.00
2019-01-19T00:46:51.594Z,0.00
2019-01-19T00:47:51.513Z,0.00
2019-01-19T00:48:51.506Z,0.00
2019-01-19T00:49:51.510Z,0.00
2019-01-19T00:50:51.481Z,0.00
2019-01-19T00:51:51.476Z,0.00
2019-01-19T00:52:51.491Z,0.00
2019-01-19T00:53:51.479Z,0.00
2019-01-19T00:54:51.441Z,0.00
2019-01-19T00:55:51.461Z,0.00
2019-01-19T00:56:51.423Z,0.00
2019-01-19T00:57:51.441Z,0.00
2019-01-19T00:58:51.667Z,0.00
2019-01-19T00:59:51.444Z,0.00
2019-01-19T01:00:51.399Z,0.00
2019-01-19T01:01:51.394Z,0.00
2019-01-19T01:02:51.358Z,0.00
2019-01-19T01:03:51.347Z,0.00
2019-01-19T01:04:51.385Z,0.00
2019-01-19T01:05:51.355Z,0.00
2019-01-19T01:06:51.363Z,0.00
2019-01-19T01:07:51.340Z,0.00
2019-01-19T01:08:51.311Z,0.00
2019-01-19T01:09:51.300Z,0.00
2019-01-19T01:10:51.318Z,0.00
2019-01-19T01:11:51.302Z,0.00
2019-01-19T01:12:51.282Z,0.00
2019-01-19T01:13:51.261Z,0.00
2019-01-19T01:14:51.231Z,0.00
2019-01-19T01:15:51.220Z,0.00
2019-01-19T01:16:51.233Z,0.00
2019-01-19T01:17:51.198Z,0.00
2019-01-19T01:18:51.185Z,0.00
2019-01-19T01:19:51.189Z,0.00
2019-01-19T01:20:51.163Z,0.00
2019-01-19T01:21:51.184Z,0.00
2019-01-19T01:22:51.166Z,0.00
2019-01-19T01:23:51.129Z,0.00
2019-01-19T01:24:51.122Z,0.00
2019-01-19T01:25:51.130Z,0.00
2019-01-19T01:26:51.123Z,0.00
2019-01-19T01:27:51.124Z,0.00
2019-01-19T01:28:51.101Z,0.00
2019-01-19T01:29:51.067Z,0.00
2019-01-19T01:30:51.057Z,0.00
2019-01-19T01:31:51.079Z,0.00
2019-01-19T01:32:51.036Z,0.00
2019-01-19T01:33:51.057Z,0.00
2019-01-19T01:34:51.014Z,0.00
2019-01-19T01:35:51.058Z,0.00
2019-01-19T01:36:50.995Z,0.00
2019-01-19T01:37:51.030Z,0.00
2019-01-19T01:38:51.000Z,0.00
2019-01-19T01:39:50.986Z,0.00
2019-01-19T01:40:50.953Z,0.00
2019-01-19T01:41:50.961Z,0.00
2019-01-19T01:42:50.962Z,0.00
2019-01-19T01:43:50.966Z,0.00
2019-01-19T01:44:50.941Z,0.00
2019-01-19T01:45:50.943Z,0.00
2019-01-19T01:46:50.901Z,0.00
2019-01-19T01:47:50.870Z,0.00
2019-01-19T01:48:50.916Z,0.00
2019-01-19T01:49:50.869Z,0.00
2019-01-19T01:50:50.844Z,0.00
2019-01-19T01:51:50.845Z,0.00
2019-01-19T01:52:50.863Z,0.00
2019-01-19T01:53:50.830Z,0.00
2019-01-19T01:54:50.827Z,0.00
2019-01-19T01:55:50.835Z,0.00
2019-01-19T01:56:50.779Z,0.00
2019-01-19T01:57:50.768Z,0.00
2019-01-19T01:58:50.823Z,0.00
2019-01-19T01:59:50.823Z,0.00
2019-01-19T02:00:50.736Z,0.00
2019-01-19T02:01:50.743Z,0.00
2019-01-19T02:02:50.714Z,0.00
2019-01-19T02:03:50.731Z,0.00
2019-01-19T02:04:50.725Z,0.00
2019-01-19T02:05:50.687Z,0.00
2019-01-19T02:06:50.675Z,0.00
2019-01-19T02:07:50.734Z,0.00
2019-01-19T02:08:50.672Z,0.00
2019-01-19T02:09:50.639Z,0.00
2019-01-19T02:10:50.657Z,0.00
2019-01-19T02:11:50.631Z,0.00
2019-01-19T02:12:50.611Z,0.00
2019-01-19T02:13:50.619Z,0.00
2019-01-19T02:14:50.687Z,0.00
2019-01-19T02:15:50.576Z,0.00
2019-01-19T02:16:50.565Z,0.00
2019-01-19T02:17:50.559Z,0.00
2019-01-19T02:18:50.546Z,0.00
2019-01-19T02:19:50.637Z,0.00
2019-01-19T02:20:50.540Z,0.00
2019-01-19T02:21:50.522Z,0.00
2019-01-19T02:22:50.499Z,0.00
2019-01-19T02:23:50.526Z,0.00
2019-01-19T02:24:50.495Z,0.00
2019-01-19T02:25:50.540Z,0.00
2019-01-19T02:26:50.474Z,0.00
2019-01-19T02:27:50.464Z,0.00
2019-01-19T02:28:50.442Z,0.00
2019-01-19T02:29:50.435Z,0.00
2019-01-19T02:30:50.474Z,0.00
2019-01-19T02:31:50.430Z,0.00
2019-01-19T02:32:50.415Z,0.00
2019-01-19T02:33:50.400Z,0.00
2019-01-19T02:34:50.374Z,0.00
2019-01-19T02:35:50.482Z,0.00
2019-01-19T02:36:50.353Z,0.00
2019-01-19T02:37:50.363Z,0.00
2019-01-19T02:38:50.381Z,0.00
2019-01-19T02:39:50.345Z,0.00
2019-01-19T02:40:50.339Z,0.00
2019-01-19T02:41:50.324Z,0.00
2019-01-19T02:42:50.330Z,0.00
2019-01-19T02:43:50.297Z,0.00
2019-01-19T02:44:50.351Z,0.00
2019-01-19T02:45:50.279Z,0.00
2019-01-19T02:46:50.296Z,0.00
2019-01-19T02:47:50.238Z,0.00
2019-01-19T02:48:50.257Z,0.00
2019-01-19T02:49:50.238Z,0.00
2019-01-19T02:50:50.283Z,0.00
2019-01-19T02:51:50.219Z,0.00
2019-01-19T02:52:50.179Z,0.00
2019-01-19T02:53:50.189Z,0.00
2019-01-19T02:54:50.181Z,0.00
2019-01-19T02:55:50.151Z,0.00
2019-01-19T02:56:50.172Z,0.00
2019-01-19T02:57:50.131Z,0.00
2019-01-19T02:58:50.120Z,0.00
2019-01-19T02:59:50.134Z,0.00
2019-01-19T03:00:50.126Z,0.00
2019-01-19T03:01:50.138Z,0.00
2019-01-19T03:02:50.097Z,0.00
2019-01-19T03:03:50.067Z,0.00
2019-01-19T03:04:50.056Z,0.00
2019-01-19T03:05:56.102Z,0.00
2019-01-19T03:06:51.078Z,0.00
2019-01-19T03:07:50.029Z,0.00
2019-01-19T03:08:50.014Z,0.00
2019-01-19T03:09:50.180Z,0.00
2019-01-19T03:10:49.991Z,0.00
2019-01-19T03:11:50.000Z,0.00
2019-01-19T03:12:50.018Z,0.00
2019-01-19T03:13:49.955Z,0.00
2019-01-19T03:14:49.969Z,0.00
2019-01-19T03:15:49.958Z,0.00
2019-01-19T03:16:49.926Z,0.00
2019-01-19T03:17:50.003Z,0.00
2019-01-19T03:18:49.935Z,0.00
2019-01-19T03:19:49.894Z,0.00
2019-01-19T03:20:49.903Z,0.00
2019-01-19T03:21:49.871Z,0.00
2019-01-19T03:22:49.886Z,0.00
2019-01-19T03:23:49.870Z,0.00
2019-01-19T03:24:49.842Z,0.00
2019-01-19T03:25:49.854Z,0.00
2019-01-19T03:26:49.849Z,0.00
2019-01-19T03:27:49.858Z,0.00
2019-01-19T03:28:49.806Z,0.00
2019-01-19T03:29:49.809Z,0.00
2019-01-19T03:30:49.772Z,0.00
2019-01-19T03:31:49.772Z,0.00
2019-01-19T03:32:49.818Z,0.00
2019-01-19T03:33:49.745Z,0.00
2019-01-19T03:34:49.760Z,0.00
2019-01-19T03:35:49.738Z,0.00
2019-01-19T03:36:49.728Z,0.00
2019-01-19T03:37:49.701Z,0.00
2019-01-19T03:38:49.719Z,0.00
2019-01-19T03:39:49.674Z,0.00
2019-01-19T03:40:49.693Z,0.00
2019-01-19T03:41:49.725Z,0.00
2019-01-19T03:42:49.653Z,0.00
2019-01-19T03:43:49.666Z,0.00
2019-01-19T03:44:49.626Z,0.00
2019-01-19T03:45:49.611Z,0.00
2019-01-19T03:46:49.642Z,0.00
2019-01-19T03:47:49.597Z,0.00
2019-01-19T03:48:49.605Z,0.00
2019-01-19T03:49:49.586Z,0.00
2019-01-19T03:50:49.559Z,0.00
2019-01-19T03:51:49.549Z,0.00
2019-01-19T03:52:49.566Z,0.00
2019-01-19T03:53:49.563Z,0.00
2019-01-19T03:54:49.518Z,0.00
2019-01-19T03:55:49.508Z,0.00
2019-01-19T03:56:49.537Z,0.00
2019-01-19T03:57:49.533Z,0.00
2019-01-19T03:58:49.524Z,0.00
2019-01-19T03:59:49.546Z,0.00
2019-01-19T04:00:49.502Z,0.00
2019-01-19T04:01:49.478Z,0.00
2019-01-19T04:02:49.441Z,0.00
2019-01-19T04:03:49.442Z,0.00
2019-01-19T04:04:49.447Z,0.00
2019-01-19T04:05:49.404Z,0.00
2019-01-19T04:06:49.389Z,0.00
2019-01-19T04:07:49.375Z,0.00
2019-01-19T04:08:49.399Z,0.00
2019-01-19T04:09:49.386Z,0.00
2019-01-19T04:10:49.352Z,0.00
2019-01-19T04:11:49.391Z,0.00
2019-01-19T04:12:49.326Z,0.00
2019-01-19T04:13:49.330Z,0.00
2019-01-19T04:14:49.350Z,0.00
2019-01-19T04:15:49.325Z,0.00
2019-01-19T04:16:49.285Z,0.00
2019-01-19T04:17:49.293Z,0.00
2019-01-19T04:18:49.321Z,0.00
2019-01-19T04:19:49.285Z,0.00
2019-01-19T04:20:49.242Z,0.00
2019-01-19T04:21:49.273Z,0.00
2019-01-19T04:22:49.257Z,0.00
2019-01-19T04:23:49.262Z,0.00
2019-01-19T04:24:49.223Z,0.00
2019-01-19T04:25:49.188Z,0.00
2019-01-19T04:26:49.200Z,0.00
2019-01-19T04:27:49.179Z,0.00
2019-01-19T04:28:49.183Z,0.00
2019-01-19T04:29:49.176Z,0.00
2019-01-19T04:30:49.735Z,0.00
2019-01-19T04:31:49.149Z,0.00
2019-01-19T04:32:49.186Z,0.00
2019-01-19T04:33:49.138Z,0.00
2019-01-19T04:34:49.091Z,0.00
2019-01-19T04:35:49.108Z,0.00
2019-01-19T04:36:49.075Z,0.00
2019-01-19T04:37:49.057Z,0.00
2019-01-19T04:38:49.052Z,0.00
2019-01-19T04:39:49.067Z,0.00
2019-01-19T04:40:49.056Z,0.00
2019-01-19T04:41:49.023Z,0.00
2019-01-19T04:42:49.010Z,0.00
2019-01-19T04:43:48.999Z,0.00
2019-01-19T04:44:48.989Z,0.00
2019-01-19T04:45:49.019Z,0.00
2019-01-19T04:46:48.962Z,0.00
2019-01-19T04:47:48.956Z,0.00
2019-01-19T04:48:48.968Z,0.00
2019-01-19T04:49:48.936Z,0.00
2019-01-19T04:50:48.921Z,0.00
2019-01-19T04:51:48.963Z,0.00
2019-01-19T04:52:48.909Z,0.00
2019-01-19T04:53:48.946Z,0.00
2019-01-19T04:54:48.878Z,0.00
2019-01-19T04:55:48.889Z,0.00
2019-01-19T04:56:48.933Z,0.00
2019-01-19T04:57:48.871Z,0.00
2019-01-19T04:58:48.861Z,0.00
2019-01-19T04:59:48.827Z,0.00
2019-01-19T05:00:48.815Z,0.00
2019-01-19T05:01:48.876Z,0.00
2019-01-19T05:02:48.819Z,0.00
2019-01-19T05:03:48.805Z,0.00
2019-01-19T05:04:48.818Z,0.00
2019-01-19T05:05:48.763Z,0.00
2019-01-19T05:06:48.786Z,0.00
2019-01-19T05:07:48.763Z,0.00
2019-01-19T05:08:48.751Z,0.00
2019-01-19T05:09:48.755Z,0.00
2019-01-19T05:10:48.731Z,0.00
2019-01-19T05:11:48.732Z,0.00
2019-01-19T05:12:48.743Z,0.00
2019-01-19T05:13:48.674Z,0.00
2019-01-19T05:14:48.669Z,0.00
2019-01-19T05:15:48.723Z,0.00
2019-01-19T05:16:48.642Z,0.00
2019-01-19T05:17:48.659Z,0.00
2019-01-19T05:18:48.625Z,0.00
2019-01-19T05:19:48.622Z,0.00
2019-01-19T05:20:48.600Z,0.00
2019-01-19T05:21:48.623Z,0.00
2019-01-19T05:22:48.639Z,0.00
2019-01-19T05:23:48.593Z,0.00
2019-01-19T05:24:48.558Z,0.00
2019-01-19T05:25:48.553Z,0.00
2019-01-19T05:26:48.557Z,0.00
2019-01-19T05:27:48.590Z,0.00
2019-01-19T05:28:48.517Z,0.00
2019-01-19T05:29:48.502Z,0.00
2019-01-19T05:30:48.497Z,0.00
2019-01-19T05:31:48.480Z,0.00
2019-01-19T05:32:48.533Z,0.00
2019-01-19T05:33:48.509Z,0.00
2019-01-19T05:34:48.453Z,0.00
2019-01-19T05:35:48.453Z,0.00
2019-01-19T05:36:48.428Z,0.00
2019-01-19T05:37:48.446Z,0.00
2019-01-19T05:38:48.443Z,0.00
2019-01-19T05:39:48.474Z,0.00
2019-01-19T05:40:48.421Z,0.00
2019-01-19T05:41:48.382Z,0.00
2019-01-19T05:42:48.394Z,0.00
2019-01-19T05:43:48.409Z,0.00
2019-01-19T05:44:48.365Z,0.00
2019-01-19T05:45:48.359Z,0.00
2019-01-19T05:46:48.325Z,0.00
2019-01-19T05:47:48.314Z,0.00
2019-01-19T05:48:48.299Z,0.00
2019-01-19T05:49:48.314Z,0.00
2019-01-19T05:50:48.307Z,0.00
2019-01-19T05:51:48.275Z,0.00
2019-01-19T05:52:48.259Z,0.00
2019-01-19T05:53:48.302Z,0.00
2019-01-19T05:54:48.262Z,0.00
2019-01-19T05:55:48.254Z,0.00
2019-01-19T05:56:48.244Z,0.00
2019-01-19T05:57:48.208Z,0.00
2019-01-19T05:58:48.212Z,0.00
2019-01-19T05:59:48.269Z,0.00
2019-01-19T06:00:48.234Z,0.00
2019-01-19T06:01:48.186Z,0.00
2019-01-19T06:02:48.196Z,0.00
2019-01-19T06:03:48.145Z,0.00
2019-01-19T06:04:48.191Z,0.00
2019-01-19T06:05:48.172Z,0.00
2019-01-19T06:06:48.140Z,0.00
2019-01-19T06:07:48.132Z,0.00
2019-01-19T06:08:48.164Z,0.00
2019-01-19T06:09:48.210Z,0.00
2019-01-19T06:10:48.092Z,0.00
2019-01-19T06:11:48.064Z,0.00
2019-01-19T06:12:48.070Z,0.00
2019-01-19T06:13:48.035Z,0.00
2019-01-19T06:14:48.118Z,0.00
2019-01-19T06:15:48.017Z,0.00
2019-01-19T06:16:48.005Z,0.00
2019-01-19T06:17:48.000Z,0.00
2019-01-19T06:18:47.998Z,0.00
2019-01-19T06:19:48.021Z,0.00
2019-01-19T06:20:47.987Z,0.00
2019-01-19T06:21:47.949Z,0.00
2019-01-19T06:22:47.984Z,0.00
2019-01-19T06:23:47.931Z,0.00
2019-01-19T06:24:47.919Z,0.00
2019-01-19T06:25:47.966Z,0.00
2019-01-19T06:26:47.952Z,0.00
2019-01-19T06:27:47.885Z,0.00
2019-01-19T06:28:47.876Z,0.00
2019-01-19T06:29:47.862Z,0.00
2019-01-19T06:30:47.921Z,0.00
2019-01-19T06:31:47.847Z,0.00
2019-01-19T06:32:47.871Z,0.00
2019-01-19T06:33:47.827Z,0.00
2019-01-19T06:34:47.853Z,0.00
2019-01-19T06:35:47.809Z,0.00
2019-01-19T06:36:54.877Z,0.00
2019-01-19T06:37:48.782Z,0.00
2019-01-19T06:38:47.791Z,0.00
2019-01-19T06:39:47.760Z,0.00
2019-01-19T06:40:47.781Z,0.00
2019-01-19T06:41:47.745Z,0.00
2019-01-19T06:42:47.730Z,0.00
2019-01-19T06:43:47.740Z,0.00
2019-01-19T06:44:47.709Z,0.00
2019-01-19T06:45:47.718Z,0.00
2019-01-19T06:46:47.759Z,0.00
2019-01-19T06:47:47.674Z,0.00
2019-01-19T06:48:47.685Z,0.00
2019-01-19T06:49:47.692Z,0.00
2019-01-19T06:50:47.688Z,0.00
2019-01-19T06:51:47.659Z,0.00
2019-01-19T06:52:47.621Z,0.00
2019-01-19T06:53:47.612Z,0.00
2019-01-19T06:54:47.603Z,0.00
2019-01-19T06:55:47.612Z,0.00
2019-01-19T06:56:47.643Z,0.00
2019-01-19T06:57:47.563Z,0.00
2019-01-19T06:58:47.562Z,0.00
2019-01-19T06:59:47.584Z,4.00
2019-01-19T07:00:47.535Z,4.00
2019-01-19T07:01:47.576Z,0.00
2019-01-19T07:02:47.538Z,0.00
2019-01-19T07:03:47.501Z,4.00
2019-01-19T07:04:47.491Z,4.00
2019-01-19T07:05:47.484Z,4.00
2019-01-19T07:06:47.508Z,4.00
2019-01-19T07:07:47.540Z,8.00
2019-01-19T07:08:47.448Z,4.00
2019-01-19T07:09:47.447Z,4.00
2019-01-19T07:10:47.467Z,8.00
2019-01-19T07:11:47.448Z,8.00
2019-01-19T07:12:47.489Z,8.00
2019-01-19T07:13:47.395Z,8.00
2019-01-19T07:14:47.421Z,12.00
2019-01-19T07:15:47.417Z,16.00
2019-01-19T07:16:47.423Z,16.00
2019-01-19T07:17:47.379Z,16.00
2019-01-19T07:18:47.361Z,20.00
2019-01-19T07:19:47.356Z,20.00
2019-01-19T07:20:47.355Z,24.00
2019-01-19T07:21:47.310Z,28.00
2019-01-19T07:22:47.321Z,28.00
2019-01-19T07:23:47.304Z,32.00
2019-01-19T07:24:47.301Z,36.00
2019-01-19T07:25:47.291Z,40.00
2019-01-19T07:26:47.303Z,44.00
2019-01-19T07:27:47.251Z,48.00
2019-01-19T07:28:47.246Z,52.00
2019-01-19T07:29:47.234Z,56.00
2019-01-19T07:30:47.261Z,64.00
2019-01-19T07:31:47.205Z,68.00
2019-01-19T07:32:47.223Z,76.00
2019-01-19T07:33:47.185Z,80.00
2019-01-19T07:34:47.177Z,88.00
2019-01-19T07:35:47.212Z,92.00
2019-01-19T07:36:47.173Z,100.00
2019-01-19T07:37:47.164Z,108.00
2019-01-19T07:38:47.377Z,112.00
2019-01-19T07:39:47.122Z,120.00
2019-01-19T07:40:47.111Z,128.00
2019-01-19T07:41:47.099Z,140.00
2019-01-19T07:42:47.144Z,144.00
2019-01-19T07:43:47.082Z,156.00
2019-01-19T07:44:47.151Z,164.00
2019-01-19T07:45:47.082Z,172.00
2019-01-19T07:46:47.092Z,184.00
2019-01-19T07:47:47.160Z,192.00
2019-01-19T07:48:47.108Z,200.00
2019-01-19T07:49:47.036Z,212.00
2019-01-19T07:50:47.004Z,224.00
2019-01-19T07:51:47.043Z,236.00
2019-01-19T07:52:47.004Z,244.00
2019-01-19T07:53:47.034Z,256.00
2019-01-19T07:54:47.087Z,268.00
2019-01-19T07:55:46.996Z,280.00
2019-01-19T07:56:46.983Z,292.00
2019-01-19T07:57:46.936Z,300.00
2019-01-19T07:58:46.941Z,316.00
2019-01-19T07:59:46.964Z,328.00
2019-01-19T08:00:46.953Z,340.00
2019-01-19T08:01:46.914Z,352.00
2019-01-19T08:02:46.918Z,364.00
2019-01-19T08:03:46.942Z,376.00
2019-01-19T08:04:46.936Z,388.00
2019-01-19T08:05:46.877Z,404.00
2019-01-19T08:06:46.864Z,416.00
2019-01-19T08:07:46.846Z,432.00
2019-01-19T08:08:46.886Z,452.00
2019-01-19T08:09:46.850Z,468.00
2019-01-19T08:10:46.834Z,488.00
2019-01-19T08:11:46.828Z,512.00
2019-01-19T08:12:46.801Z,524.00
2019-01-19T08:13:46.762Z,520.00
2019-01-19T08:14:46.771Z,512.00
2019-01-19T08:15:46.739Z,512.00
2019-01-19T08:16:46.770Z,516.00
2019-01-19T08:17:46.728Z,532.00
2019-01-19T08:18:46.723Z,540.00
2019-01-19T08:19:46.727Z,556.00
2019-01-19T08:20:46.685Z,568.00
2019-01-19T08:21:46.682Z,592.00
2019-01-19T08:22:46.689Z,608.00
2019-01-19T08:23:46.673Z,632.00
2019-01-19T08:24:46.718Z,652.00
2019-01-19T08:25:46.642Z,692.00
2019-01-19T08:26:46.649Z,724.00
2019-01-19T08:27:46.632Z,740.00
2019-01-19T08:28:46.602Z,756.00
2019-01-19T08:29:46.617Z,772.00
2019-01-19T08:30:46.672Z,776.00
2019-01-19T08:31:46.585Z,784.00
2019-01-19T08:32:46.612Z,792.00
2019-01-19T08:33:46.578Z,808.00
2019-01-19T08:34:46.708Z,820.00
2019-01-19T08:35:46.576Z,832.00
2019-01-19T08:36:46.566Z,836.00
2019-01-19T08:37:46.499Z,848.00
2019-01-19T08:38:46.523Z,864.00
2019-01-19T08:39:46.505Z,884.00
2019-01-19T08:40:46.522Z,908.00
2019-01-19T08:41:46.482Z,928.00
2019-01-19T08:42:46.475Z,936.00
2019-01-19T08:43:46.486Z,916.00
2019-01-19T08:44:46.457Z,880.00
2019-01-19T08:45:46.444Z,856.00
2019-01-19T08:46:46.413Z,852.00
2019-01-19T08:47:46.407Z,856.00
2019-01-19T08:48:46.421Z,872.00
2019-01-19T08:49:46.401Z,888.00
2019-01-19T08:50:46.406Z,900.00
2019-01-19T08:51:46.353Z,916.00
2019-01-19T08:52:46.340Z,932.00
2019-01-19T08:53:46.328Z,952.00
2019-01-19T08:54:46.343Z,972.00
2019-01-19T08:55:46.350Z,988.00
2019-01-19T08:56:46.337Z,1000.00
2019-01-19T08:57:46.292Z,1016.00
2019-01-19T08:58:46.277Z,1032.00
2019-01-19T08:59:46.267Z,1040.00
2019-01-19T09:00:46.280Z,1048.00
2019-01-19T09:01:46.246Z,1052.00
2019-01-19T09:02:46.265Z,1060.00
2019-01-19T09:03:46.225Z,1072.00
2019-01-19T09:04:46.216Z,1088.00
2019-01-19T09:05:46.212Z,1100.00
2019-01-19T09:06:46.252Z,1100.00
2019-01-19T09:07:46.183Z,1092.00
2019-01-19T09:08:46.176Z,1084.00
2019-01-19T09:09:46.162Z,1076.00
2019-01-19T09:10:46.180Z,1076.00
2019-01-19T09:11:46.203Z,1084.00
2019-01-19T09:12:46.131Z,1100.00
2019-01-19T09:13:46.118Z,1104.00
2019-01-19T09:14:46.110Z,1112.00
2019-01-19T09:15:46.118Z,1112.00
2019-01-19T09:16:46.129Z,1108.00
2019-01-19T09:17:46.085Z,1112.00
2019-01-19T09:18:46.067Z,1108.00
2019-01-19T09:19:46.057Z,1104.00
2019-01-19T09:20:46.045Z,1108.00
2019-01-19T09:21:46.036Z,1108.00
2019-01-19T09:22:46.107Z,1112.00
2019-01-19T09:23:46.011Z,1120.00
2019-01-19T09:24:46.015Z,1136.00
2019-01-19T09:25:46.013Z,1152.00
2019-01-19T09:26:45.982Z,1156.00
2019-01-19T09:27:45.994Z,1164.00
2019-01-19T09:28:45.991Z,1168.00
2019-01-19T09:29:45.946Z,1176.00
2019-01-19T09:30:45.977Z,1180.00
2019-01-19T09:31:45.957Z,1188.00
2019-01-19T09:32:45.947Z,1196.00
2019-01-19T09:33:45.904Z,1208.00
2019-01-19T09:34:45.922Z,1216.00
2019-01-19T09:35:45.918Z,1224.00
2019-01-19T09:36:45.906Z,1232.00
2019-01-19T09:37:46.935Z,1228.00
2019-01-19T09:38:45.852Z,1224.00
2019-01-19T09:39:45.842Z,1224.00
2019-01-19T09:40:45.848Z,1224.00
2019-01-19T09:41:45.818Z,1220.00
2019-01-19T09:42:45.838Z,1216.00
2019-01-19T09:43:45.846Z,1212.00
2019-01-19T09:44:45.813Z,1216.00
2019-01-19T09:45:45.844Z,1224.00
2019-01-19T09:46:45.763Z,1228.00
2019-01-19T09:47:45.792Z,1228.00
2019-01-19T09:48:46.911Z,1228.00
2019-01-19T09:49:45.755Z,1228.00
2019-01-19T09:50:45.732Z,1224.00
2019-01-19T09:51:45.743Z,1224.00
2019-01-19T09:52:45.763Z,1228.00
2019-01-19T09:53:45.694Z,1228.00
2019-01-19T09:54:45.714Z,1232.00
2019-01-19T09:55:45.721Z,1236.00
2019-01-19T09:56:45.707Z,1228.00
2019-01-19T09:57:45.698Z,1232.00
2019-01-19T09:58:45.717Z,1232.00
2019-01-19T09:59:45.628Z,1236.00
2019-01-19T10:00:45.930Z,1240.00
2019-01-19T10:01:46.601Z,1248.00
2019-01-19T10:02:45.607Z,1248.00
2019-01-19T10:03:45.619Z,1240.00
2019-01-19T10:04:45.584Z,1240.00
2019-01-19T10:05:45.563Z,1240.00
2019-01-19T10:06:45.575Z,1248.00
2019-01-19T10:07:48.685Z,1252.00
2019-01-19T10:08:45.604Z,1256.00
2019-01-19T10:09:45.536Z,1256.00
2019-01-19T10:10:45.518Z,1260.00
2019-01-19T10:11:45.537Z,1256.00
2019-01-19T10:12:45.519Z,1256.00
2019-01-19T10:13:45.499Z,1256.00
2019-01-19T10:14:45.476Z,1264.00
2019-01-19T10:15:45.532Z,1276.00
2019-01-19T10:16:45.505Z,1280.00
2019-01-19T10:17:45.462Z,1288.00
2019-01-19T10:18:45.455Z,1292.00
2019-01-19T10:19:45.447Z,1304.00
2019-01-19T10:20:45.451Z,1308.00
2019-01-19T10:21:45.406Z,1308.00
2019-01-19T10:22:45.392Z,1312.00
2019-01-19T10:23:45.453Z,1316.00
2019-01-19T10:24:45.425Z,1320.00
2019-01-19T10:25:45.360Z,1324.00
2019-01-19T10:26:45.350Z,1324.00
2019-01-19T10:27:45.340Z,1332.00
2019-01-19T10:28:45.324Z,1336.00
2019-01-19T10:29:45.385Z,1336.00
2019-01-19T10:30:45.330Z,1340.00
2019-01-19T10:31:45.332Z,1344.00
2019-01-19T10:32:45.284Z,1344.00
2019-01-19T10:33:45.270Z,1348.00
2019-01-19T10:34:45.291Z,1352.00
2019-01-19T10:35:45.336Z,1356.00
2019-01-19T10:36:45.239Z,1352.00
2019-01-19T10:37:45.237Z,1356.00
2019-01-19T10:38:45.218Z,1360.00
2019-01-19T10:39:45.215Z,1360.00
2019-01-19T10:40:45.198Z,1368.00
2019-01-19T10:41:45.240Z,1372.00
2019-01-19T10:42:45.177Z,1380.00
2019-01-19T10:43:45.208Z,1380.00
2019-01-19T10:44:45.153Z,1380.00
2019-01-19T10:45:45.176Z,1384.00
2019-01-19T10:46:45.139Z,1388.00
2019-01-19T10:47:45.185Z,1388.00
2019-01-19T10:48:45.119Z,1384.00
2019-01-19T10:49:45.107Z,1384.00
2019-01-19T10:50:45.154Z,1380.00
2019-01-19T10:51:45.082Z,1380.00
2019-01-19T10:52:45.073Z,1376.00
2019-01-19T10:53:45.074Z,1372.00
2019-01-19T10:54:45.057Z,1372.00
2019-01-19T10:55:45.053Z,1368.00
2019-01-19T10:56:45.056Z,1356.00
2019-01-19T10:57:45.017Z,1352.00
2019-01-19T10:58:45.006Z,1352.00
2019-01-19T10:59:45.006Z,1356.00
2019-01-19T11:00:45.034Z,1356.00
2019-01-19T11:01:44.972Z,1352.00
2019-01-19T11:02:44.967Z,1352.00
2019-01-19T11:03:44.954Z,1356.00
2019-01-19T11:04:44.935Z,1356.00
2019-01-19T11:05:45.041Z,1352.00
2019-01-19T11:06:44.926Z,1352.00
2019-01-19T11:07:44.925Z,1352.00
2019-01-19T11:08:44.914Z,1344.00
2019-01-19T11:09:44.892Z,1320.00
2019-01-19T11:10:44.885Z,1312.00
2019-01-19T11:11:44.886Z,1312.00
2019-01-19T11:12:44.848Z,1316.00
2019-01-19T11:13:44.840Z,1320.00
2019-01-19T11:14:44.860Z,1324.00
2019-01-19T11:15:44.870Z,1324.00
2019-01-19T11:16:44.858Z,1328.00
2019-01-19T11:17:44.799Z,1324.00
2019-01-19T11:18:44.813Z,1320.00
2019-01-19T11:19:44.808Z,1320.00
2019-01-19T11:20:44.792Z,1316.00
2019-01-19T11:21:44.832Z,1312.00
2019-01-19T11:22:44.747Z,1308.00
2019-01-19T11:23:44.761Z,1312.00
2019-01-19T11:24:44.765Z,1316.00
2019-01-19T11:25:44.711Z,1316.00
2019-01-19T11:26:44.721Z,1320.00
2019-01-19T11:27:44.686Z,1324.00
2019-01-19T11:28:45.051Z,1328.00
2019-01-19T11:29:44.681Z,1328.00
2019-01-19T11:30:44.651Z,1324.00
2019-01-19T11:31:44.782Z,1332.00
2019-01-19T11:32:44.671Z,1332.00
2019-01-19T11:33:44.641Z,1336.00
2019-01-19T11:34:44.638Z,1336.00
2019-01-19T11:35:44.628Z,1340.00
2019-01-19T11:36:44.588Z,1336.00
2019-01-19T11:37:44.579Z,1332.00
2019-01-19T11:38:44.648Z,1324.00
2019-01-19T11:39:44.572Z,1324.00
2019-01-19T11:40:44.557Z,1312.00
2019-01-19T11:41:44.540Z,1312.00
2019-01-19T11:42:44.551Z,1308.00
2019-01-19T11:43:44.534Z,1304.00
2019-01-19T11:44:44.500Z,1300.00
2019-01-19T11:45:44.512Z,1304.00
2019-01-19T11:46:44.511Z,1300.00
2019-01-19T11:47:44.497Z,1304.00
2019-01-19T11:48:44.457Z,1300.00
2019-01-19T11:49:44.446Z,1300.00
2019-01-19T11:50:44.452Z,1300.00
2019-01-19T11:51:44.431Z,1296.00
2019-01-19T11:52:44.434Z,1296.00
2019-01-19T11:53:44.428Z,1296.00
2019-01-19T11:54:44.390Z,1292.00
2019-01-19T11:55:45.998Z,1288.00
2019-01-19T11:56:44.377Z,1280.00
2019-01-19T11:57:44.362Z,1268.00
2019-01-19T11:58:44.430Z,1272.00
2019-01-19T11:59:44.338Z,1276.00
2019-01-19T12:00:44.330Z,1280.00
2019-01-19T12:01:44.320Z,1296.00
2019-01-19T12:02:44.309Z,1292.00
2019-01-19T12:03:44.336Z,1292.00
2019-01-19T12:04:44.306Z,1284.00
2019-01-19T12:05:44.277Z,1280.00
2019-01-19T12:06:44.295Z,1280.00
2019-01-19T12:07:44.258Z,1276.00
2019-01-19T12:08:44.267Z,1272.00
2019-01-19T12:09:44.231Z,1276.00
2019-01-19T12:10:44.244Z,1280.00
2019-01-19T12:11:44.210Z,1276.00
2019-01-19T12:12:44.204Z,1272.00
2019-01-19T12:13:44.218Z,1276.00
2019-01-19T12:14:44.178Z,1280.00
2019-01-19T12:15:44.170Z,1280.00
2019-01-19T12:16:44.199Z,1276.00
2019-01-19T12:17:44.147Z,1280.00
2019-01-19T12:18:44.165Z,1280.00
2019-01-19T12:19:44.120Z,1276.00
2019-01-19T12:20:44.129Z,1272.00
2019-01-19T12:21:44.166Z,1272.00
2019-01-19T12:22:44.103Z,1264.00
2019-01-19T12:23:44.085Z,1264.00
2019-01-19T12:24:44.094Z,1264.00
2019-01-19T12:25:44.062Z,1256.00
2019-01-19T12:26:44.047Z,1248.00
2019-01-19T12:27:44.038Z,1232.00
2019-01-19T12:28:44.052Z,1220.00
2019-01-19T12:29:44.055Z,1216.00
2019-01-19T12:30:44.025Z,1208.00
2019-01-19T12:31:44.056Z,1204.00
2019-01-19T12:32:43.989Z,1196.00
2019-01-19T12:33:43.977Z,1196.00
2019-01-19T12:34:44.015Z,1180.00
2019-01-19T12:35:43.954Z,1168.00
2019-01-19T12:36:43.943Z,1164.00
2019-01-19T12:37:43.937Z,1156.00
2019-01-19T12:38:43.928Z,1156.00
2019-01-19T12:39:43.911Z,1152.00
2019-01-19T12:40:43.951Z,1148.00
2019-01-19T12:41:43.891Z,1148.00
2019-01-19T12:42:43.928Z,1148.00
2019-01-19T12:43:43.865Z,1144.00
2019-01-19T12:44:43.858Z,1144.00
2019-01-19T12:45:43.870Z,1136.00
2019-01-19T12:46:43.885Z,1132.00
2019-01-19T12:47:44.042Z,1128.00
2019-01-19T12:48:43.810Z,1120.00
2019-01-19T12:49:43.823Z,1116.00